createdAt,value
2023-01-29T00:00:11.046Z,4.03
2023-01-29T00:02:39.454Z,5.00
2023-01-29T00:05:26.456Z,6.43
2023-01-29T00:07:56.160Z,6.07
2023-01-29T00:10:25.025Z,7.00
2023-01-29T00:12:54.963Z,5.17
2023-01-29T00:15:23.643Z,5.37
2023-01-29T00:17:52.015Z,8.33
2023-01-29T00:20:20.487Z,6.37
2023-01-29T00:22:48.976Z,5.60
2023-01-29T00:25:17.353Z,5.43
2023-01-29T00:27:47.031Z,5.60
2023-01-29T00:30:20.103Z,6.77
2023-01-29T00:32:48.714Z,5.27
2023-01-29T00:35:17.150Z,7.43
2023-01-29T00:37:46.341Z,5.90
2023-01-29T00:40:15.441Z,6.80
2023-01-29T00:43:03.702Z,5.30
2023-01-29T00:45:33.346Z,5.13
2023-01-29T00:48:01.832Z,4.77
2023-01-29T00:50:30.828Z,5.47
2023-01-29T00:52:59.699Z,4.83
2023-01-29T00:55:28.017Z,6.10
2023-01-29T00:57:56.486Z,5.57
2023-01-29T01:00:25.016Z,5.87
2023-01-29T01:03:06.167Z,5.50
2023-01-29T01:05:34.580Z,5.93
2023-01-29T01:08:03.325Z,7.20
2023-01-29T01:10:33.075Z,5.57
2023-01-29T01:13:03.385Z,6.13
2023-01-29T01:15:35.153Z,5.30
2023-01-29T01:18:05.418Z,8.33
2023-01-29T01:20:36.130Z,6.53
2023-01-29T01:23:04.762Z,4.70
2023-01-29T01:25:33.920Z,6.40
2023-01-29T01:28:02.261Z,6.37
2023-01-29T01:30:30.711Z,5.93
2023-01-29T01:33:00.413Z,9.53
2023-01-29T01:35:30.590Z,5.03
2023-01-29T01:37:58.826Z,5.90
2023-01-29T01:40:29.450Z,7.87
2023-01-29T01:42:59.521Z,6.53
2023-01-29T01:45:30.678Z,9.97
2023-01-29T01:48:04.104Z,5.73
2023-01-29T01:50:38.140Z,7.53
2023-01-29T01:53:11.313Z,8.47
2023-01-29T02:02:20.860Z,7.23
2023-01-29T02:05:07.458Z,8.07
2023-01-29T02:08:02.428Z,11.17
2023-01-29T02:10:38.764Z,8.30
2023-01-29T02:13:08.699Z,7.00
2023-01-29T02:15:37.627Z,7.00
2023-01-29T02:18:06.440Z,8.10
2023-01-29T02:20:39.167Z,7.73
2023-01-29T02:23:40.050Z,7.73
2023-01-29T02:26:47.409Z,9.70
2023-01-29T02:29:36.262Z,8.00
2023-01-29T02:32:18.107Z,8.27
2023-01-29T02:35:14.336Z,7.40
2023-01-29T02:37:56.622Z,9.77
2023-01-29T02:40:31.517Z,6.70
2023-01-29T02:43:08.903Z,9.60
2023-01-29T02:45:46.289Z,8.57
2023-01-29T02:48:20.267Z,11.13
2023-01-29T02:50:55.611Z,7.97
2023-01-29T02:53:31.101Z,7.43
2023-01-29T02:56:21.343Z,9.77
2023-01-29T02:58:54.946Z,8.37
2023-01-29T03:01:36.209Z,11.27
2023-01-29T03:04:09.587Z,8.50
2023-01-29T03:06:42.967Z,9.07
2023-01-29T03:09:16.512Z,8.83
2023-01-29T03:11:51.308Z,10.77
2023-01-29T03:14:25.421Z,11.30
2023-01-29T03:17:03.902Z,9.30
2023-01-29T03:19:45.495Z,10.17
2023-01-29T03:22:18.534Z,10.07
2023-01-29T03:25:08.098Z,9.70
2023-01-29T03:27:58.077Z,12.07
2023-01-29T03:30:50.202Z,9.93
2023-01-29T03:33:22.414Z,11.93
2023-01-29T03:36:01.900Z,9.70
2023-01-29T03:38:33.092Z,11.07
2023-01-29T03:41:14.185Z,11.00
2023-01-29T03:44:07.217Z,11.07
2023-01-29T03:46:43.637Z,10.23
2023-01-29T03:49:26.897Z,13.03
2023-01-29T03:52:06.506Z,10.33
2023-01-29T03:54:42.694Z,10.17
2023-01-29T03:57:21.985Z,9.73
2023-01-29T03:59:57.608Z,9.47
2023-01-29T04:02:32.005Z,13.30
2023-01-29T04:05:09.492Z,10.67
2023-01-29T04:07:39.180Z,10.23
2023-01-29T04:10:13.188Z,10.30
2023-01-29T04:12:46.908Z,12.90
2023-01-29T04:15:18.781Z,13.37
2023-01-29T04:17:51.715Z,11.27
2023-01-29T04:20:21.982Z,11.83
2023-01-29T04:22:53.221Z,10.20
2023-01-29T04:25:29.146Z,10.37
2023-01-29T04:28:07.039Z,9.17
2023-01-29T04:30:45.459Z,10.53
2023-01-29T04:33:31.505Z,10.93
2023-01-29T04:36:25.966Z,10.00
2023-01-29T04:39:05.491Z,9.60
2023-01-29T04:41:39.681Z,9.30
2023-01-29T04:44:14.095Z,9.87
2023-01-29T04:49:36.916Z,8.00
2023-01-29T04:52:19.778Z,8.20
2023-01-29T04:55:02.893Z,10.33
2023-01-29T05:00:12.129Z,14.00
2023-01-29T05:02:44.159Z,9.30
2023-01-29T05:05:38.903Z,9.47
2023-01-29T05:08:09.415Z,10.07
2023-01-29T05:10:39.799Z,9.47
2023-01-29T05:13:15.680Z,10.17
2023-01-29T05:15:50.013Z,10.50
2023-01-29T05:18:18.987Z,9.70
2023-01-29T05:20:51.347Z,10.03
2023-01-29T05:23:26.857Z,10.13
2023-01-29T05:25:59.404Z,9.87
2023-01-29T05:28:26.800Z,10.20
2023-01-29T05:30:59.699Z,11.70
2023-01-29T05:33:31.468Z,9.77
2023-01-29T05:36:04.103Z,10.90
2023-01-29T05:38:35.283Z,8.13
2023-01-29T05:41:06.748Z,10.57
2023-01-29T05:43:37.262Z,11.57
2023-01-29T05:46:37.575Z,8.23
2023-01-29T05:49:07.105Z,11.03
2023-01-29T05:51:35.445Z,12.20
2023-01-29T05:54:30.004Z,9.23
2023-01-29T05:57:10.083Z,12.50
2023-01-29T05:59:41.989Z,13.77
2023-01-29T06:02:11.405Z,11.30
2023-01-29T06:04:40.998Z,11.27
2023-01-29T06:07:10.225Z,12.90
2023-01-29T06:09:39.895Z,10.80
2023-01-29T06:12:08.465Z,12.80
2023-01-29T06:14:37.982Z,10.67
2023-01-29T06:17:09.767Z,13.60
2023-01-29T06:19:38.100Z,15.03
2023-01-29T06:22:07.830Z,14.27
2023-01-29T06:24:39.076Z,10.20
2023-01-29T06:27:09.156Z,12.73
2023-01-29T06:29:37.921Z,9.97
2023-01-29T06:32:07.648Z,11.17
2023-01-29T06:34:35.938Z,11.03
2023-01-29T06:37:04.440Z,11.23
2023-01-29T06:39:32.812Z,11.53
2023-01-29T06:42:02.509Z,11.30
2023-01-29T06:44:30.748Z,9.77
2023-01-29T06:46:59.192Z,11.23
2023-01-29T06:49:27.441Z,12.43
2023-01-29T06:51:55.667Z,12.00
2023-01-29T06:54:23.972Z,12.17
2023-01-29T06:57:50.846Z,10.40
2023-01-29T07:01:36.127Z,10.67
2023-01-29T07:04:19.316Z,11.17
2023-01-29T07:06:48.461Z,10.50
2023-01-29T07:09:16.630Z,11.53
2023-01-29T07:11:44.915Z,10.07
2023-01-29T07:14:13.352Z,12.33
2023-01-29T07:16:41.642Z,10.03
2023-01-29T07:19:09.944Z,9.97
2023-01-29T07:21:40.220Z,8.70
2023-01-29T07:24:09.143Z,10.70
2023-01-29T07:26:37.411Z,12.73
2023-01-29T07:29:06.668Z,12.23
2023-01-29T07:31:35.641Z,10.20
2023-01-29T07:34:04.047Z,11.13
2023-01-29T07:36:32.635Z,9.97
2023-01-29T07:39:02.252Z,14.33
2023-01-29T07:41:30.978Z,11.23
2023-01-29T07:47:37.497Z,10.47
2023-01-29T07:50:16.194Z,11.50
2023-01-29T07:59:46.612Z,11.10
2023-01-29T08:02:17.349Z,13.03
2023-01-29T08:04:45.746Z,13.30
2023-01-29T08:07:14.043Z,14.83
2023-01-29T08:09:42.467Z,14.37
2023-01-29T08:12:12.367Z,12.00
2023-01-29T08:14:42.697Z,13.87
2023-01-29T08:17:11.090Z,12.77
2023-01-29T08:19:39.501Z,11.47
2023-01-29T08:22:09.364Z,13.67
2023-01-29T08:24:53.376Z,13.17
2023-01-29T08:27:35.490Z,12.80
2023-01-29T08:30:06.436Z,11.87
2023-01-29T08:32:34.777Z,11.93
2023-01-29T08:35:03.292Z,13.60
2023-01-29T08:37:33.281Z,11.83
2023-01-29T08:40:02.668Z,12.70
2023-01-29T08:42:39.347Z,12.50
2023-01-29T08:45:17.395Z,10.53
2023-01-29T08:47:51.460Z,12.70
2023-01-29T08:50:20.539Z,11.63
2023-01-29T08:53:27.720Z,11.30
2023-01-29T08:56:02.004Z,10.97
2023-01-29T08:58:30.575Z,12.93
2023-01-29T09:01:08.020Z,11.80
2023-01-29T09:03:36.666Z,14.97
2023-01-29T09:06:06.272Z,11.30
2023-01-29T09:08:36.061Z,16.97
2023-01-29T09:11:07.113Z,10.97
2023-01-29T09:13:36.056Z,12.53
2023-01-29T09:16:09.122Z,13.53
2023-01-29T09:18:39.909Z,12.63
2023-01-29T09:21:20.099Z,15.50
2023-01-29T09:23:48.479Z,15.77
2023-01-29T09:26:17.869Z,11.40
2023-01-29T09:28:46.358Z,15.37
2023-01-29T09:31:16.757Z,16.73
2023-01-29T09:33:47.277Z,13.13
2023-01-29T09:36:21.199Z,12.03
2023-01-29T09:38:54.444Z,15.63
2023-01-29T09:41:37.987Z,10.47
2023-01-29T09:44:15.677Z,12.13
2023-01-29T09:46:55.876Z,11.67
2023-01-29T09:49:30.121Z,8.47
2023-01-29T09:52:06.947Z,10.80
2023-01-29T09:57:18.594Z,9.53
2023-01-29T10:03:43.971Z,9.40
2023-01-29T10:07:10.872Z,9.87
2023-01-29T10:10:09.560Z,13.53
2023-01-29T10:12:55.637Z,10.97
2023-01-29T10:15:40.372Z,9.07
2023-01-29T10:18:48.592Z,8.77
2023-01-29T10:21:38.655Z,10.57
2023-01-29T10:24:20.764Z,8.70
2023-01-29T10:26:49.548Z,7.23
2023-01-29T10:29:47.234Z,8.93
2023-01-29T10:32:29.290Z,11.53
2023-01-29T10:35:05.485Z,8.50
2023-01-29T10:37:43.940Z,8.40
2023-01-29T10:40:54.133Z,8.23
2023-01-29T10:43:41.923Z,8.90
2023-01-29T10:46:25.437Z,9.43
2023-01-29T10:49:05.070Z,11.63
2023-01-29T10:52:17.533Z,9.50
2023-01-29T10:55:05.650Z,9.27
2023-01-29T11:01:00.963Z,10.70
2023-01-29T11:03:43.488Z,10.77
2023-01-29T11:06:33.367Z,15.17
2023-01-29T11:09:11.074Z,10.57
2023-01-29T11:11:46.059Z,11.13
2023-01-29T11:14:29.370Z,8.53
2023-01-29T11:17:18.500Z,8.67
2023-01-29T11:19:51.448Z,9.97
2023-01-29T11:22:32.896Z,12.30
2023-01-29T11:25:16.745Z,11.10
2023-01-29T11:27:50.333Z,9.83
2023-01-29T11:30:41.199Z,11.47
2023-01-29T11:33:18.493Z,14.37
2023-01-29T11:35:49.460Z,11.20
2023-01-29T11:38:24.831Z,11.23
2023-01-29T11:41:09.441Z,9.40
2023-01-29T11:46:37.433Z,12.80
2023-01-29T11:50:10.321Z,11.47
2023-01-29T11:53:31.300Z,13.50
2023-01-29T11:56:39.421Z,19.90
2023-01-29T12:00:02.722Z,11.73
2023-01-29T12:02:43.123Z,12.47
2023-01-29T12:05:29.098Z,10.80
2023-01-29T12:08:06.201Z,11.03
2023-01-29T12:10:51.886Z,12.30
2023-01-29T12:13:41.979Z,11.63
2023-01-29T12:16:47.026Z,11.93
2023-01-29T12:19:35.511Z,13.57
2023-01-29T12:22:21.661Z,11.97
2023-01-29T12:24:58.348Z,11.23
2023-01-29T12:27:33.192Z,12.17
2023-01-29T12:30:09.549Z,11.77
2023-01-29T12:32:46.624Z,14.27
2023-01-29T12:35:22.122Z,14.40
2023-01-29T12:37:56.856Z,17.10
2023-01-29T12:40:29.884Z,13.50
2023-01-29T12:43:04.453Z,12.87
2023-01-29T12:45:44.654Z,11.90
2023-01-29T12:48:23.602Z,12.90
2023-01-29T12:50:59.146Z,11.87
2023-01-29T12:53:32.507Z,10.13
2023-01-29T12:56:04.088Z,11.30
2023-01-29T12:58:36.027Z,12.97
2023-01-29T13:01:14.200Z,11.80
2023-01-29T13:07:17.869Z,10.97
2023-01-29T13:09:53.323Z,13.17
2023-01-29T13:12:27.828Z,10.23
2023-01-29T13:15:01.740Z,8.90
2023-01-29T13:17:37.437Z,9.03
2023-01-29T13:20:14.584Z,10.60
2023-01-29T13:22:45.552Z,9.13
2023-01-29T13:25:18.351Z,8.47
2023-01-29T13:27:48.040Z,9.87
2023-01-29T13:30:29.271Z,14.03
2023-01-29T13:36:00.739Z,9.77
2023-01-29T13:38:39.230Z,11.37
2023-01-29T13:41:16.315Z,9.67
2023-01-29T13:44:15.019Z,11.10
2023-01-29T13:46:55.059Z,13.03
2023-01-29T13:49:38.329Z,12.40
2023-01-29T13:52:23.715Z,10.20
2023-01-29T13:55:13.874Z,12.53
2023-01-29T13:58:11.139Z,10.37
2023-01-29T14:00:58.321Z,11.43
2023-01-29T14:04:04.953Z,12.87
2023-01-29T14:06:49.657Z,14.57
2023-01-29T14:09:56.462Z,10.53
2023-01-29T14:12:53.944Z,11.77
2023-01-29T14:18:25.520Z,12.90
2023-01-29T14:21:07.004Z,9.60
2023-01-29T14:23:41.834Z,10.43
2023-01-29T14:26:33.322Z,8.63
2023-01-29T14:29:09.035Z,10.67
2023-01-29T14:31:46.043Z,21.33
2023-01-29T14:34:26.863Z,13.57
2023-01-29T14:36:58.202Z,11.67
2023-01-29T14:42:58.491Z,12.90
2023-01-29T14:45:31.683Z,10.03
2023-01-29T14:48:36.013Z,13.13
2023-01-29T14:51:11.196Z,10.10
2023-01-29T14:53:56.302Z,9.87
2023-01-29T14:56:57.135Z,13.13
2023-01-29T14:59:48.332Z,13.13
2023-01-29T15:02:21.322Z,13.40
2023-01-29T15:04:55.761Z,11.73
2023-01-29T15:07:31.941Z,11.67
2023-01-29T15:10:22.026Z,16.07
2023-01-29T15:12:58.267Z,12.03
2023-01-29T15:15:39.185Z,11.47
2023-01-29T15:18:14.120Z,13.57
2023-01-29T15:20:45.702Z,14.30
2023-01-29T15:23:26.813Z,15.97
2023-01-29T15:26:01.786Z,13.33
2023-01-29T15:28:32.300Z,17.03
2023-01-29T15:31:08.961Z,14.03
2023-01-29T15:33:38.870Z,14.63
2023-01-29T15:36:26.833Z,17.07
2023-01-29T15:39:15.775Z,12.17
2023-01-29T15:41:44.630Z,12.67
2023-01-29T15:44:16.755Z,14.80
2023-01-29T15:46:50.071Z,13.37
2023-01-29T15:49:27.346Z,12.43
2023-01-29T15:51:59.045Z,16.90
2023-01-29T15:54:29.624Z,17.20
2023-01-29T15:56:58.807Z,13.60
2023-01-29T16:00:04.474Z,13.93
2023-01-29T16:03:11.514Z,15.53
2023-01-29T16:05:42.879Z,12.27
2023-01-29T16:08:18.593Z,13.37
2023-01-29T16:10:54.503Z,13.33
2023-01-29T16:13:32.986Z,15.37
2023-01-29T16:16:04.739Z,13.50
2023-01-29T16:19:00.761Z,16.33
2023-01-29T16:21:36.493Z,14.37
2023-01-29T16:24:44.039Z,14.63
2023-01-29T16:37:56.066Z,13.77
2023-01-29T16:40:35.045Z,15.27
2023-01-29T16:43:54.984Z,15.83
2023-01-29T16:46:49.442Z,21.63
2023-01-29T16:50:02.896Z,16.63
2023-01-29T16:52:45.134Z,15.43
2023-01-29T16:55:42.316Z,16.17
2023-01-29T16:58:16.952Z,15.97
2023-01-29T17:00:56.799Z,16.10
2023-01-29T17:04:22.440Z,16.20
2023-01-29T17:07:10.078Z,19.40
2023-01-29T17:09:45.646Z,22.30
2023-01-29T17:12:38.763Z,19.47
2023-01-29T17:15:34.868Z,18.73
2023-01-29T17:18:27.975Z,15.67
2023-01-29T17:21:30.028Z,17.93
2023-01-29T17:24:19.114Z,21.13
2023-01-29T17:26:53.012Z,17.70
2023-01-29T17:29:59.729Z,17.63
2023-01-29T17:32:47.748Z,18.27
2023-01-29T17:35:20.232Z,20.33
2023-01-29T17:37:51.554Z,17.57
2023-01-29T17:40:35.806Z,17.83
2023-01-29T17:43:07.685Z,16.70
2023-01-29T17:45:40.898Z,13.60
2023-01-29T17:48:16.556Z,18.07
2023-01-29T17:50:49.121Z,16.67
2023-01-29T17:53:17.629Z,15.03
2023-01-29T17:55:46.035Z,18.47
2023-01-29T17:58:21.721Z,18.93
2023-01-29T18:02:29.766Z,18.40
2023-01-29T18:04:58.966Z,17.63
2023-01-29T18:07:27.654Z,18.57
2023-01-29T18:13:17.173Z,18.80
2023-01-29T18:15:47.468Z,25.17
2023-01-29T18:18:24.345Z,19.00
2023-01-29T18:20:54.168Z,19.50
2023-01-29T18:23:23.385Z,17.40
2023-01-29T18:25:53.380Z,20.10
2023-01-29T18:28:24.111Z,20.00
2023-01-29T18:31:03.502Z,20.00
2023-01-29T18:33:35.125Z,17.43
2023-01-29T18:36:07.043Z,15.77
2023-01-29T18:38:52.658Z,18.63
2023-01-29T18:41:21.954Z,16.07
2023-01-29T18:43:56.814Z,18.67
2023-01-29T18:46:28.483Z,15.53
2023-01-29T18:49:00.620Z,20.43
2023-01-29T18:51:30.971Z,21.13
2023-01-29T18:53:59.280Z,22.27
2023-01-29T18:56:27.976Z,18.13
2023-01-29T18:58:57.474Z,19.23
2023-01-29T19:01:27.448Z,23.23
2023-01-29T19:03:59.098Z,18.87
2023-01-29T19:06:30.351Z,21.37
2023-01-29T19:08:59.432Z,21.27
2023-01-29T19:11:28.015Z,20.27
2023-01-29T19:13:56.796Z,20.23
2023-01-29T19:16:27.788Z,19.03
2023-01-29T19:18:59.349Z,21.43
2023-01-29T19:21:35.813Z,23.13
2023-01-29T19:24:09.012Z,25.80
2023-01-29T19:26:40.430Z,19.73
2023-01-29T19:29:11.224Z,27.37
2023-01-29T19:31:41.874Z,21.80
2023-01-29T19:34:13.470Z,21.20
2023-01-29T19:36:49.356Z,18.90
2023-01-29T19:39:31.031Z,20.37
2023-01-29T19:41:59.360Z,21.63
2023-01-29T19:44:29.020Z,19.33
2023-01-29T19:46:58.220Z,19.00
2023-01-29T19:49:27.505Z,17.50
2023-01-29T19:51:59.044Z,19.10
2023-01-29T19:54:29.666Z,19.57
2023-01-29T19:56:58.133Z,19.73
2023-01-29T19:59:26.520Z,21.63
2023-01-29T20:01:54.923Z,18.03
2023-01-29T20:07:42.695Z,18.17
2023-01-29T20:10:17.213Z,18.70
2023-01-29T20:13:14.881Z,20.10
2023-01-29T20:16:23.044Z,21.37
2023-01-29T20:18:52.427Z,17.50
2023-01-29T20:21:23.142Z,18.43
2023-01-29T20:23:55.857Z,18.23
2023-01-29T20:26:27.027Z,17.20
2023-01-29T20:28:57.581Z,15.60
2023-01-29T20:31:27.247Z,16.37
2023-01-29T20:36:24.883Z,18.57
2023-01-29T20:38:54.601Z,18.07
2023-01-29T20:41:22.916Z,18.23
2023-01-29T20:43:51.616Z,19.90
2023-01-29T20:46:21.344Z,16.50
2023-01-29T20:48:54.191Z,18.63
2023-01-29T20:51:23.967Z,17.10
2023-01-29T20:53:57.265Z,15.10
2023-01-29T20:56:36.058Z,19.83
2023-01-29T20:59:07.068Z,18.47
2023-01-29T21:01:37.206Z,17.30
2023-01-29T21:04:05.630Z,18.17
2023-01-29T21:06:34.169Z,17.47
2023-01-29T21:09:14.973Z,19.87
2023-01-29T21:17:40.089Z,17.30
2023-01-29T21:20:10.027Z,21.60
2023-01-29T21:22:39.182Z,19.10
2023-01-29T21:25:12.457Z,19.03
2023-01-29T21:27:40.823Z,16.93
2023-01-29T21:30:15.889Z,21.20
2023-01-29T21:32:44.973Z,22.53
2023-01-29T21:35:13.466Z,22.07
2023-01-29T21:37:42.464Z,19.83
2023-01-29T21:40:13.557Z,20.00
2023-01-29T21:43:00.054Z,22.57
2023-01-29T21:45:28.673Z,20.10
2023-01-29T21:47:58.132Z,23.40
2023-01-29T21:50:33.453Z,20.93
2023-01-29T21:53:04.854Z,21.80
2023-01-29T21:55:42.965Z,23.13
2023-01-29T21:58:58.104Z,19.40
2023-01-29T22:01:38.067Z,18.90
2023-01-29T22:04:09.775Z,19.83
2023-01-29T22:06:42.895Z,19.77
2023-01-29T22:09:15.774Z,24.63
2023-01-29T22:11:47.194Z,21.60
2023-01-29T22:14:20.038Z,21.53
2023-01-29T22:16:48.775Z,24.50
2023-01-29T22:19:17.070Z,23.60
2023-01-29T22:21:48.123Z,25.47
2023-01-29T22:24:24.139Z,25.97
2023-01-29T22:29:27.318Z,24.37
2023-01-29T22:32:04.198Z,23.03
2023-01-29T22:34:35.957Z,22.30
2023-01-29T22:37:07.423Z,25.70
2023-01-29T22:39:39.205Z,25.43
2023-01-29T22:42:12.009Z,24.73
2023-01-29T22:44:40.762Z,22.90
2023-01-29T22:47:09.983Z,27.37
2023-01-29T22:49:38.370Z,24.30
2023-01-29T22:52:12.912Z,27.90
2023-01-29T22:54:44.381Z,24.90
2023-01-29T22:57:16.076Z,29.47
2023-01-29T22:59:47.055Z,25.30
2023-01-29T23:02:18.995Z,31.23
2023-01-29T23:07:52.925Z,27.93
2023-01-29T23:10:31.665Z,31.50
2023-01-29T23:13:04.454Z,35.90
2023-01-29T23:15:35.222Z,31.20
2023-01-29T23:18:06.745Z,29.90
2023-01-29T23:20:36.735Z,36.03
2023-01-29T23:23:05.597Z,31.57
2023-01-29T23:25:52.254Z,35.73
2023-01-29T23:28:23.512Z,32.73
2023-01-29T23:30:53.621Z,36.67
2023-01-29T23:33:23.025Z,32.20
2023-01-29T23:35:52.014Z,35.47
2023-01-29T23:38:20.692Z,34.13
2023-01-29T23:40:49.865Z,32.80
2023-01-29T23:43:21.888Z,28.40
2023-01-29T23:45:58.901Z,35.30
2023-01-29T23:48:31.502Z,34.83
2023-01-29T23:51:04.773Z,34.23
2023-01-29T23:53:35.938Z,36.70
2023-01-29T23:56:07.047Z,33.70
2023-01-29T23:58:40.093Z,34.87
